createdAt,value
2023-05-22T00:01:29.920Z,0.00
2023-05-22T00:06:29.610Z,0.00
2023-05-22T00:11:29.598Z,0.00
2023-05-22T00:16:29.525Z,0.00
2023-05-22T00:21:32.505Z,0.00
2023-05-22T00:26:29.374Z,0.00
2023-05-22T00:31:29.348Z,0.00
2023-05-22T00:36:29.222Z,0.00
2023-05-22T00:41:29.275Z,0.00
2023-05-22T00:46:29.308Z,0.00
2023-05-22T00:51:29.065Z,0.00
2023-05-22T00:56:28.947Z,0.00
2023-05-22T01:01:28.982Z,0.00
2023-05-22T01:06:28.879Z,0.00
2023-05-22T01:11:28.845Z,0.00
2023-05-22T01:16:28.690Z,0.00
2023-05-22T01:21:31.680Z,0.00
2023-05-22T01:26:28.621Z,0.00
2023-05-22T01:31:28.615Z,0.00
2023-05-22T01:36:28.397Z,0.00
2023-05-22T01:41:28.369Z,0.00
2023-05-22T01:46:28.380Z,0.00
2023-05-22T01:51:28.267Z,0.00
2023-05-22T01:56:28.209Z,0.00
2023-05-22T02:01:28.183Z,0.00
2023-05-22T02:06:28.061Z,0.00
2023-05-22T02:11:28.042Z,0.00
2023-05-22T02:16:27.918Z,0.00
2023-05-22T02:21:30.933Z,0.00
2023-05-22T02:26:27.791Z,0.00
2023-05-22T02:31:27.791Z,0.00
2023-05-22T02:36:27.652Z,4.00
2023-05-22T02:41:27.625Z,4.00
2023-05-22T02:46:27.544Z,4.00
2023-05-22T02:51:27.498Z,12.00
2023-05-22T02:56:27.377Z,28.00
2023-05-22T03:01:27.392Z,48.00
2023-05-22T03:06:27.269Z,88.00
2023-05-22T03:11:27.206Z,132.00
2023-05-22T03:16:27.280Z,200.00
2023-05-22T03:21:30.063Z,308.00
2023-05-22T03:26:26.990Z,464.00
2023-05-22T03:31:27.002Z,672.00
2023-05-22T03:36:26.839Z,924.00
2023-05-22T03:41:26.798Z,1204.00
2023-05-22T03:46:34.087Z,1496.00
2023-05-22T03:51:27.424Z,1836.00
2023-05-22T03:56:27.482Z,2168.00
2023-05-22T04:01:26.477Z,2540.00
2023-05-22T04:06:26.548Z,2892.00
2023-05-22T04:11:26.446Z,3340.00
2023-05-22T04:16:26.376Z,3828.00
2023-05-22T04:21:29.273Z,4440.00
2023-05-22T04:26:26.185Z,5284.00
2023-05-22T04:31:26.238Z,6084.00
2023-05-22T04:36:26.130Z,7116.00
2023-05-22T04:41:26.067Z,7516.00
2023-05-22T04:46:25.930Z,8240.00
2023-05-22T04:51:25.956Z,8120.00
2023-05-22T04:56:35.528Z,8304.00
2023-05-22T05:01:26.778Z,8836.00
2023-05-22T05:06:25.659Z,9060.00
2023-05-22T05:11:25.581Z,9820.00
2023-05-22T05:16:25.539Z,11508.00
2023-05-22T05:21:28.510Z,12400.00
2023-05-22T05:26:25.427Z,13376.00
2023-05-22T05:31:25.437Z,14688.00
2023-05-22T05:36:25.240Z,16384.00
2023-05-22T05:41:25.253Z,18048.00
2023-05-22T05:46:25.160Z,16480.00
2023-05-22T05:51:25.083Z,15200.00
2023-05-22T05:56:25.012Z,16000.00
2023-05-22T06:01:24.989Z,15936.00
2023-05-22T06:06:24.858Z,14188.00
2023-05-22T06:11:24.831Z,13176.00
2023-05-22T06:16:24.806Z,14060.00
2023-05-22T06:21:27.675Z,13716.00
2023-05-22T06:26:24.627Z,14912.00
2023-05-22T06:31:24.596Z,17344.00
2023-05-22T06:36:24.525Z,20160.00
2023-05-22T06:41:24.426Z,29216.00
2023-05-22T06:46:25.924Z,33024.00
2023-05-22T06:51:24.288Z,34848.00
2023-05-22T06:56:24.200Z,34464.00
2023-05-22T07:01:24.424Z,38752.00
2023-05-22T07:06:24.272Z,39840.00
2023-05-22T07:11:24.065Z,40000.00
2023-05-22T07:16:24.019Z,41632.00
2023-05-22T07:21:26.946Z,44544.00
2023-05-22T07:26:23.825Z,36576.00
2023-05-22T07:31:23.773Z,42528.00
2023-05-22T07:36:23.676Z,44224.00
2023-05-22T07:41:23.686Z,38912.00
2023-05-22T07:46:23.583Z,44160.00
2023-05-22T07:51:23.619Z,42048.00
2023-05-22T07:56:23.441Z,42848.00
2023-05-22T08:01:23.384Z,44928.00
2023-05-22T08:06:23.300Z,46016.00
2023-05-22T08:11:23.256Z,41568.00
2023-05-22T08:16:23.273Z,38048.00
2023-05-22T08:21:26.138Z,34432.00
2023-05-22T08:26:23.046Z,35712.00
2023-05-22T08:31:23.071Z,16832.00
2023-05-22T08:36:22.965Z,13092.00
2023-05-22T08:41:22.886Z,12580.00
2023-05-22T08:46:22.815Z,12424.00
2023-05-22T08:51:22.773Z,12328.00
2023-05-22T08:56:22.647Z,12212.00
2023-05-22T09:01:22.715Z,12108.00
2023-05-22T09:06:22.624Z,12120.00
2023-05-22T09:11:22.501Z,12300.00
2023-05-22T09:16:22.431Z,12620.00
2023-05-22T09:26:22.427Z,12516.00
2023-05-22T09:31:22.561Z,12484.00
2023-05-22T09:36:22.220Z,12452.00
2023-05-22T09:41:22.178Z,12380.00
2023-05-22T09:46:22.088Z,12280.00
2023-05-22T09:51:22.091Z,12052.00
2023-05-22T09:56:34.810Z,12040.00
2023-05-22T10:01:22.922Z,12188.00
2023-05-22T10:06:21.739Z,12304.00
2023-05-22T10:11:21.764Z,12512.00
2023-05-22T10:16:21.701Z,12400.00
2023-05-22T10:21:24.592Z,12080.00
2023-05-22T10:26:21.517Z,11920.00
2023-05-22T10:31:21.439Z,12052.00
2023-05-22T10:36:21.436Z,12504.00
2023-05-22T10:41:21.360Z,12928.00
2023-05-22T10:46:21.318Z,13320.00
2023-05-22T10:51:21.179Z,14536.00
2023-05-22T10:56:23.639Z,13616.00
2023-05-22T11:01:21.158Z,13056.00
2023-05-22T11:06:21.009Z,13044.00
2023-05-22T11:11:21.096Z,12792.00
2023-05-22T11:16:20.950Z,12588.00
2023-05-22T11:21:23.850Z,13752.00
2023-05-22T11:26:20.750Z,14632.00
2023-05-22T11:31:20.817Z,14076.00
2023-05-22T11:36:20.612Z,12084.00
2023-05-22T11:41:20.695Z,11064.00
2023-05-22T11:46:20.502Z,11592.00
2023-05-22T11:51:20.461Z,12048.00
2023-05-22T11:56:20.406Z,12416.00
2023-05-22T12:01:20.408Z,12060.00
2023-05-22T12:06:20.193Z,14016.00
2023-05-22T12:11:20.119Z,12740.00
2023-05-22T12:16:20.162Z,13104.00
2023-05-22T12:21:23.062Z,12816.00
2023-05-22T12:26:19.932Z,13008.00
2023-05-22T12:31:19.874Z,12460.00
2023-05-22T12:36:19.847Z,12056.00
2023-05-22T12:41:19.904Z,12356.00
2023-05-22T12:46:19.787Z,11900.00
2023-05-22T12:51:20.244Z,12480.00
2023-05-22T12:56:19.589Z,12716.00
2023-05-22T13:01:19.571Z,12580.00
2023-05-22T13:06:19.470Z,12292.00
2023-05-22T13:11:19.381Z,11928.00
2023-05-22T13:16:19.296Z,11556.00
2023-05-22T13:21:23.231Z,11088.00
2023-05-22T13:26:19.181Z,10656.00
2023-05-22T13:31:19.770Z,10924.00
2023-05-22T13:36:19.016Z,11416.00
2023-05-22T13:41:18.991Z,11580.00
2023-05-22T13:46:18.884Z,11588.00
2023-05-22T13:51:18.891Z,11436.00
2023-05-22T13:56:18.784Z,11144.00
2023-05-22T14:01:18.789Z,11100.00
2023-05-22T14:06:18.633Z,11248.00
2023-05-22T14:11:18.641Z,11292.00
2023-05-22T14:16:18.541Z,11400.00
2023-05-22T14:21:21.493Z,10488.00
2023-05-22T14:26:18.373Z,11032.00
2023-05-22T14:31:18.370Z,12728.00
2023-05-22T14:36:18.251Z,13036.00
2023-05-22T14:41:18.294Z,12552.00
2023-05-22T14:46:18.131Z,10428.00
2023-05-22T14:51:18.057Z,11220.00
2023-05-22T14:56:18.000Z,10880.00
2023-05-22T15:01:17.990Z,10348.00
2023-05-22T15:06:17.862Z,10032.00
2023-05-22T15:11:17.838Z,9688.00
2023-05-22T15:16:17.860Z,8648.00
2023-05-22T15:21:20.737Z,7372.00
2023-05-22T15:26:17.610Z,6696.00
2023-05-22T15:31:17.730Z,6152.00
2023-05-22T15:36:17.469Z,5412.00
2023-05-22T15:41:17.534Z,4980.00
2023-05-22T15:46:17.388Z,4360.00
2023-05-22T15:51:17.353Z,4100.00
2023-05-22T15:56:17.463Z,3700.00
2023-05-22T16:01:17.559Z,2612.00
2023-05-22T16:06:25.016Z,2320.00
2023-05-22T16:11:18.907Z,1816.00
2023-05-22T16:16:16.979Z,1400.00
2023-05-22T16:21:23.650Z,1156.00
2023-05-22T16:26:16.835Z,1032.00
2023-05-22T16:31:19.097Z,1032.00
2023-05-22T16:36:16.759Z,1164.00
2023-05-22T16:41:16.640Z,1416.00
2023-05-22T16:46:16.617Z,1716.00
2023-05-22T16:51:16.599Z,2588.00
2023-05-22T16:56:16.412Z,3188.00
2023-05-22T17:01:16.434Z,3132.00
2023-05-22T17:06:17.412Z,2660.00
2023-05-22T17:11:16.271Z,2276.00
2023-05-22T17:16:16.189Z,2136.00
2023-05-22T17:21:19.153Z,2668.00
2023-05-22T17:26:16.045Z,2280.00
2023-05-22T17:31:16.006Z,1544.00
2023-05-22T17:36:15.886Z,1132.00
2023-05-22T17:41:15.852Z,956.00
2023-05-22T17:46:15.779Z,660.00
2023-05-22T17:51:15.722Z,492.00
2023-05-22T17:56:15.615Z,408.00
2023-05-22T18:01:15.758Z,364.00
2023-05-22T18:06:15.529Z,300.00
2023-05-22T18:11:15.456Z,244.00
2023-05-22T18:16:15.456Z,232.00
2023-05-22T18:21:18.299Z,236.00
2023-05-22T18:26:15.227Z,208.00
2023-05-22T18:31:15.296Z,184.00
2023-05-22T18:36:15.160Z,164.00
2023-05-22T18:41:15.091Z,144.00
2023-05-22T18:46:14.993Z,128.00
2023-05-22T18:51:14.947Z,120.00
2023-05-22T18:56:14.828Z,80.00
2023-05-22T19:01:14.821Z,56.00
2023-05-22T19:06:14.715Z,48.00
2023-05-22T19:11:14.765Z,32.00
2023-05-22T19:16:14.628Z,20.00
2023-05-22T19:21:17.549Z,16.00
2023-05-22T19:26:14.505Z,8.00
2023-05-22T19:31:14.525Z,4.00
2023-05-22T19:36:14.318Z,4.00
2023-05-22T19:41:14.266Z,4.00
2023-05-22T19:46:14.205Z,0.00
2023-05-22T19:51:14.161Z,0.00
2023-05-22T19:56:14.022Z,0.00
2023-05-22T20:01:14.054Z,0.00
2023-05-22T20:06:13.898Z,0.00
2023-05-22T20:11:13.866Z,0.00
2023-05-22T20:16:13.797Z,0.00
2023-05-22T20:21:16.815Z,0.00
2023-05-22T20:26:13.674Z,0.00
2023-05-22T20:31:13.583Z,0.00
2023-05-22T20:36:13.624Z,0.00
2023-05-22T20:41:13.903Z,0.00
2023-05-22T20:46:14.395Z,0.00
2023-05-22T20:51:13.562Z,0.00
2023-05-22T20:56:13.415Z,0.00
2023-05-22T21:01:13.252Z,0.00
2023-05-22T21:06:13.083Z,0.00
2023-05-22T21:11:13.091Z,0.00
2023-05-22T21:16:12.954Z,0.00
2023-05-22T21:21:15.914Z,0.00
2023-05-22T21:26:12.789Z,0.00
2023-05-22T21:31:13.297Z,0.00
2023-05-22T21:36:12.700Z,0.00
2023-05-22T21:41:12.674Z,0.00
2023-05-22T21:46:12.725Z,0.00
2023-05-22T21:51:12.567Z,0.00
2023-05-22T21:56:12.559Z,0.00
2023-05-22T22:01:12.576Z,0.00
2023-05-22T22:06:12.377Z,0.00
2023-05-22T22:11:12.414Z,0.00
2023-05-22T22:16:12.268Z,0.00
2023-05-22T22:21:15.248Z,0.00
2023-05-22T22:26:12.151Z,0.00
2023-05-22T22:31:12.058Z,0.00
2023-05-22T22:36:11.970Z,0.00
2023-05-22T22:41:11.987Z,0.00
2023-05-22T22:46:11.768Z,0.00
2023-05-22T22:51:11.749Z,0.00
2023-05-22T22:56:11.635Z,0.00
2023-05-22T23:01:11.616Z,0.00
2023-05-22T23:06:11.487Z,0.00
2023-05-22T23:11:11.450Z,0.00
2023-05-22T23:16:11.445Z,0.00
2023-05-22T23:21:14.453Z,0.00
2023-05-22T23:26:11.293Z,0.00
2023-05-22T23:31:11.258Z,0.00
2023-05-22T23:36:11.111Z,0.00
2023-05-22T23:41:11.086Z,0.00
2023-05-22T23:46:10.951Z,0.00
2023-05-22T23:51:10.998Z,0.00
2023-05-22T23:56:10.830Z,0.00
